sensor_id;sensor_type;location;lat;lon;timestamp;pressure;altitude;pressure_sealevel;temperature;humidity
75455;BME280;64035;48.358;2.122;2022-11-15T00:00:58;100292.25;;;10.01;79.97
75455;BME280;64035;48.358;2.122;2022-11-15T00:02:01;100301.03;;;10.06;80.90
75455;BME280;64035;48.358;2.122;2022-11-15T00:03:06;100294.81;;;10.01;80.64
75455;BME280;64035;48.358;2.122;2022-11-15T00:04:07;100299.13;;;10.02;80.11
75455;BME280;64035;48.358;2.122;2022-11-15T00:05:10;100292.13;;;9.98;80.15
75455;BME280;64035;48.358;2.122;2022-11-15T00:06:10;100295.69;;;10.02;80.05
75455;BME280;64035;48.358;2.122;2022-11-15T00:07:18;100294.69;;;9.98;79.99
75455;BME280;64035;48.358;2.122;2022-11-15T00:08:31;100296.38;;;9.98;80.13
75455;BME280;64035;48.358;2.122;2022-11-15T00:09:34;100294.59;;;9.97;79.99
75455;BME280;64035;48.358;2.122;2022-11-15T00:10:37;100294.47;;;9.94;79.99
75455;BME280;64035;48.358;2.122;2022-11-15T00:11:45;100290.88;;;9.90;80.26
75455;BME280;64035;48.358;2.122;2022-11-15T00:12:45;100290.00;;;9.90;80.64
75455;BME280;64035;48.358;2.122;2022-11-15T00:13:49;100294.41;;;9.92;80.44
75455;BME280;64035;48.358;2.122;2022-11-15T00:14:52;100296.88;;;9.91;80.62
75455;BME280;64035;48.358;2.122;2022-11-15T00:15:56;100290.88;;;9.90;80.62
75455;BME280;64035;48.358;2.122;2022-11-15T00:16:56;100280.56;;;9.89;80.45
75455;BME280;64035;48.358;2.122;2022-11-15T00:17:59;100296.06;;;9.92;80.21
75455;BME280;64035;48.358;2.122;2022-11-15T00:19:00;100282.25;;;9.88;80.02
75455;BME280;64035;48.358;2.122;2022-11-15T00:20:03;100293.44;;;9.90;80.52
75455;BME280;64035;48.358;2.122;2022-11-15T00:21:15;100284.69;;;9.85;80.40
75455;BME280;64035;48.358;2.122;2022-11-15T00:22:18;100287.06;;;9.82;80.31
75455;BME280;64035;48.358;2.122;2022-11-15T00:23:21;100280.38;;;9.84;79.65
75455;BME280;64035;48.358;2.122;2022-11-15T00:24:25;100282.72;;;9.79;80.31
75455;BME280;64035;48.358;2.122;2022-11-15T00:25:28;100283.63;;;9.82;80.34
75455;BME280;64035;48.358;2.122;2022-11-15T00:26:29;100282.63;;;9.78;80.46
75455;BME280;64035;48.358;2.122;2022-11-15T00:27:32;100277.34;;;9.75;80.24
75455;BME280;64035;48.358;2.122;2022-11-15T00:28:44;100285.28;;;9.79;80.36
75455;BME280;64035;48.358;2.122;2022-11-15T00:29:47;100279.19;;;9.77;80.03
75455;BME280;64035;48.358;2.122;2022-11-15T00:30:50;100268.69;;;9.71;80.34
75455;BME280;64035;48.358;2.122;2022-11-15T00:31:50;100271.25;;;9.71;80.48
75455;BME280;64035;48.358;2.122;2022-11-15T00:32:51;100276.63;;;9.77;79.94
75455;BME280;64035;48.358;2.122;2022-11-15T00:33:51;100265.16;;;9.69;80.40
75455;BME280;64035;48.358;2.122;2022-11-15T00:34:52;100257.56;;;9.71;80.52
75455;BME280;64035;48.358;2.122;2022-11-15T00:36:03;100255.75;;;9.68;80.52
75455;BME280;64035;48.358;2.122;2022-11-15T00:37:14;100266.84;;;9.69;80.22
75455;BME280;64035;48.358;2.122;2022-11-15T00:38:15;100258.22;;;9.67;80.21
75455;BME280;64035;48.358;2.122;2022-11-15T00:39:15;100261.56;;;9.66;80.47
75455;BME280;64035;48.358;2.122;2022-11-15T00:40:18;100273.91;;;9.74;80.02
75455;BME280;64035;48.358;2.122;2022-11-15T00:41:19;100256.44;;;9.66;80.71
75455;BME280;64035;48.358;2.122;2022-11-15T00:42:28;100261.66;;;9.67;80.49
75455;BME280;64035;48.358;2.122;2022-11-15T00:43:33;100260.84;;;9.68;80.36
75455;BME280;64035;48.358;2.122;2022-11-15T00:44:44;100259.19;;;9.69;80.44
75455;BME280;64035;48.358;2.122;2022-11-15T00:45:47;100257.66;;;9.72;80.49
75455;BME280;64035;48.358;2.122;2022-11-15T00:46:47;100260.84;;;9.68;80.21
75455;BME280;64035;48.358;2.122;2022-11-15T00:47:52;100258.38;;;9.70;80.87
75455;BME280;64035;48.358;2.122;2022-11-15T00:48:56;100256.63;;;9.69;80.65
75455;BME280;64035;48.358;2.122;2022-11-15T00:50:07;100248.88;;;9.67;80.19
75455;BME280;64035;48.358;2.122;2022-11-15T00:51:09;100246.22;;;9.66;80.43
75455;BME280;64035;48.358;2.122;2022-11-15T00:52:13;100245.50;;;9.68;80.53
75455;BME280;64035;48.358;2.122;2022-11-15T00:53:24;100236.09;;;9.67;80.34
75455;BME280;64035;48.358;2.122;2022-11-15T00:54:32;100233.53;;;9.67;80.38
75455;BME280;64035;48.358;2.122;2022-11-15T00:55:32;100244.13;;;9.75;80.51
75455;BME280;64035;48.358;2.122;2022-11-15T00:56:33;100239.59;;;9.69;80.77
75455;BME280;64035;48.358;2.122;2022-11-15T00:57:35;100231.94;;;9.69;80.39
75455;BME280;64035;48.358;2.122;2022-11-15T00:58:48;100231.94;;;9.69;80.57
75455;BME280;64035;48.358;2.122;2022-11-15T00:59:51;100231.16;;;9.70;80.73
75455;BME280;64035;48.358;2.122;2022-11-15T01:00:52;100226.84;;;9.69;80.27
75455;BME280;64035;48.358;2.122;2022-11-15T01:01:57;100220.84;;;9.69;80.68
75455;BME280;64035;48.358;2.122;2022-11-15T01:03:08;100221.56;;;9.66;80.63
75455;BME280;64035;48.358;2.122;2022-11-15T01:04:09;100229.22;;;9.66;80.59
75455;BME280;64035;48.358;2.122;2022-11-15T01:05:09;100220.63;;;9.64;80.26
75455;BME280;64035;48.358;2.122;2022-11-15T01:06:20;100218.88;;;9.63;80.78
75455;BME280;64035;48.358;2.122;2022-11-15T01:07:21;100222.31;;;9.64;80.89
75455;BME280;64035;48.358;2.122;2022-11-15T01:08:32;100224.88;;;9.64;80.98
75455;BME280;64035;48.358;2.122;2022-11-15T01:09:40;100221.56;;;9.66;80.99
75455;BME280;64035;48.358;2.122;2022-11-15T01:10:40;100219.00;;;9.66;80.62
75455;BME280;64035;48.358;2.122;2022-11-15T01:11:43;100217.41;;;9.68;80.28
75455;BME280;64035;48.358;2.122;2022-11-15T01:12:49;100219.97;;;9.68;80.68
75455;BME280;64035;48.358;2.122;2022-11-15T01:13:55;100211.28;;;9.65;80.62
75455;BME280;64035;48.358;2.122;2022-11-15T01:14:55;100214.69;;;9.65;80.81
75455;BME280;64035;48.358;2.122;2022-11-15T01:15:56;100220.63;;;9.64;80.44
75455;BME280;64035;48.358;2.122;2022-11-15T01:17:06;100215.53;;;9.64;81.41
75455;BME280;64035;48.358;2.122;2022-11-15T01:18:06;100214.84;;;9.68;80.40
75455;BME280;64035;48.358;2.122;2022-11-15T01:19:07;100211.34;;;9.66;80.74
75455;BME280;64035;48.358;2.122;2022-11-15T01:20:08;100205.34;;;9.66;80.83
75455;BME280;64035;48.358;2.122;2022-11-15T01:21:11;100206.91;;;9.62;80.36
75455;BME280;64035;48.358;2.122;2022-11-15T01:22:12;100213.09;;;9.67;80.65
75455;BME280;64035;48.358;2.122;2022-11-15T01:23:12;100205.28;;;9.64;80.87
75455;BME280;64035;48.358;2.122;2022-11-15T01:24:13;100210.44;;;9.66;80.57
75455;BME280;64035;48.358;2.122;2022-11-15T01:25:16;100204.53;;;9.67;80.29
75455;BME280;64035;48.358;2.122;2022-11-15T01:26:19;100197.75;;;9.67;80.54
75455;BME280;64035;48.358;2.122;2022-11-15T01:27:29;100189.97;;;9.64;80.36
75455;BME280;64035;48.358;2.122;2022-11-15T01:28:32;100211.50;;;9.69;80.39
75455;BME280;64035;48.358;2.122;2022-11-15T01:29:33;100199.44;;;9.67;80.53
75455;BME280;64035;48.358;2.122;2022-11-15T01:30:36;100200.31;;;9.67;80.63
75455;BME280;64035;48.358;2.122;2022-11-15T01:31:36;100195.13;;;9.66;80.15
75455;BME280;64035;48.358;2.122;2022-11-15T01:32:46;100191.56;;;9.62;80.10
75455;BME280;64035;48.358;2.122;2022-11-15T01:33:48;100185.50;;;9.60;80.57
75455;BME280;64035;48.358;2.122;2022-11-15T01:34:48;100195.06;;;9.64;80.33
75455;BME280;64035;48.358;2.122;2022-11-15T01:35:49;100180.25;;;9.57;80.52
75455;BME280;64035;48.358;2.122;2022-11-15T01:36:54;100187.25;;;9.61;80.36
75455;BME280;64035;48.358;2.122;2022-11-15T01:38:01;100185.38;;;9.57;80.32
75455;BME280;64035;48.358;2.122;2022-11-15T01:39:11;100180.31;;;9.59;80.07
75455;BME280;64035;48.358;2.122;2022-11-15T01:40:25;100184.63;;;9.60;80.35
75455;BME280;64035;48.358;2.122;2022-11-15T01:41:33;100185.41;;;9.59;80.20
75455;BME280;64035;48.358;2.122;2022-11-15T01:42:36;100167.91;;;9.49;80.65
75455;BME280;64035;48.358;2.122;2022-11-15T01:43:44;100168.03;;;9.52;80.10
75455;BME280;64035;48.358;2.122;2022-11-15T01:44:48;100178.50;;;9.56;80.05
75455;BME280;64035;48.358;2.122;2022-11-15T01:45:56;100162.00;;;9.50;80.02
75455;BME280;64035;48.358;2.122;2022-11-15T01:47:04;100168.13;;;9.53;80.12
75455;BME280;64035;48.358;2.122;2022-11-15T01:48:10;100168.28;;;9.56;79.99
75455;BME280;64035;48.358;2.122;2022-11-15T01:49:13;100162.94;;;9.52;80.22
75455;BME280;64035;48.358;2.122;2022-11-15T01:50:20;100164.84;;;9.56;80.16
75455;BME280;64035;48.358;2.122;2022-11-15T01:51:25;100158.78;;;9.54;80.27
75455;BME280;64035;48.358;2.122;2022-11-15T01:52:37;100147.47;;;9.49;80.13
75455;BME280;64035;48.358;2.122;2022-11-15T01:53:46;100151.00;;;9.51;80.81
75455;BME280;64035;48.358;2.122;2022-11-15T01:54:55;100142.13;;;9.44;80.49
75455;BME280;64035;48.358;2.122;2022-11-15T01:55:57;100141.41;;;9.47;80.17
75455;BME280;64035;48.358;2.122;2022-11-15T01:57:11;100138.66;;;9.42;80.13
75455;BME280;64035;48.358;2.122;2022-11-15T01:58:12;100140.41;;;9.43;80.55
75455;BME280;64035;48.358;2.122;2022-11-15T01:59:13;100141.19;;;9.42;80.40
75455;BME280;64035;48.358;2.122;2022-11-15T02:00:15;100135.22;;;9.42;80.52
75455;BME280;64035;48.358;2.122;2022-11-15T02:01:15;100134.41;;;9.43;80.34
75455;BME280;64035;48.358;2.122;2022-11-15T02:02:18;100143.16;;;9.48;80.55
75455;BME280;64035;48.358;2.122;2022-11-15T02:03:25;100131.91;;;9.44;80.60
75455;BME280;64035;48.358;2.122;2022-11-15T02:04:36;100130.09;;;9.42;81.01
75455;BME280;64035;48.358;2.122;2022-11-15T02:05:39;100129.34;;;9.44;80.59
75455;BME280;64035;48.358;2.122;2022-11-15T02:06:40;100126.59;;;9.39;80.22
75455;BME280;64035;48.358;2.122;2022-11-15T02:07:42;100118.84;;;9.38;80.66
75455;BME280;64035;48.358;2.122;2022-11-15T02:08:44;100118.84;;;9.38;80.48
75455;BME280;64035;48.358;2.122;2022-11-15T02:09:45;100117.16;;;9.38;80.64
75455;BME280;64035;48.358;2.122;2022-11-15T02:10:46;100118.22;;;9.42;80.65
75455;BME280;64035;48.358;2.122;2022-11-15T02:11:48;100100.84;;;9.35;80.73
75455;BME280;64035;48.358;2.122;2022-11-15T02:12:50;100110.38;;;9.39;80.42
75455;BME280;64035;48.358;2.122;2022-11-15T02:13:52;100116.44;;;9.41;80.70
75455;BME280;64035;48.358;2.122;2022-11-15T02:14:54;100103.31;;;9.33;81.04
75455;BME280;64035;48.358;2.122;2022-11-15T02:18:11;100113.91;;;9.41;80.32
75455;BME280;64035;48.358;2.122;2022-11-15T02:25:18;100092.78;;;9.45;80.46
75455;BME280;64035;48.358;2.122;2022-11-15T02:33:22;100080.69;;;9.41;81.01
75455;BME280;64035;48.358;2.122;2022-11-15T02:40:10;100067.84;;;9.39;80.67
75455;BME280;64035;48.358;2.122;2022-11-15T02:41:22;100056.47;;;9.33;80.76
75455;BME280;64035;48.358;2.122;2022-11-15T02:42:26;100058.22;;;9.34;80.48
75455;BME280;64035;48.358;2.122;2022-11-15T02:44:58;100060.09;;;9.38;81.05
75455;BME280;64035;48.358;2.122;2022-11-15T02:46:09;100050.56;;;9.34;80.63
75455;BME280;64035;48.358;2.122;2022-11-15T02:47:16;100050.41;;;9.31;80.69
75455;BME280;64035;48.358;2.122;2022-11-15T02:48:18;100055.78;;;9.37;80.37
75455;BME280;64035;48.358;2.122;2022-11-15T02:49:21;100059.81;;;9.32;81.17
75455;BME280;64035;48.358;2.122;2022-11-15T02:50:28;100044.41;;;9.30;80.23
75455;BME280;64035;48.358;2.122;2022-11-15T02:51:33;100046.94;;;9.29;80.44
75455;BME280;64035;48.358;2.122;2022-11-15T02:52:36;100054.88;;;9.35;80.60
75455;BME280;64035;48.358;2.122;2022-11-15T02:53:36;100040.25;;;9.32;80.54
75455;BME280;64035;48.358;2.122;2022-11-15T02:54:37;100040.25;;;9.32;80.63
75455;BME280;64035;48.358;2.122;2022-11-15T02:55:50;100037.72;;;9.32;80.86
75455;BME280;64035;48.358;2.122;2022-11-15T02:56:56;100036.84;;;9.32;80.84
75455;BME280;64035;48.358;2.122;2022-11-15T02:59:17;100046.44;;;9.37;80.57
75455;BME280;64035;48.358;2.122;2022-11-15T03:00:21;100035.16;;;9.32;80.34
75455;BME280;64035;48.358;2.122;2022-11-15T03:01:34;100030.84;;;9.31;80.16
75455;BME280;64035;48.358;2.122;2022-11-15T03:06:57;100039.97;;;9.26;80.64
75455;BME280;64035;48.358;2.122;2022-11-15T03:11:11;100030.56;;;9.25;80.26
75455;BME280;64035;48.358;2.122;2022-11-15T03:13:27;100032.41;;;9.28;80.54
75455;BME280;64035;48.358;2.122;2022-11-15T03:15:05;100028.09;;;9.27;80.34
75455;BME280;64035;48.358;2.122;2022-11-15T03:16:15;100027.00;;;9.22;80.36
75455;BME280;64035;48.358;2.122;2022-11-15T03:17:22;100017.44;;;9.18;80.40
75455;BME280;64035;48.358;2.122;2022-11-15T03:18:38;100029.78;;;9.26;80.18
75455;BME280;64035;48.358;2.122;2022-11-15T03:19:49;100015.84;;;9.20;80.47
75455;BME280;64035;48.358;2.122;2022-11-15T03:20:50;100021.03;;;9.21;80.42
75455;BME280;64035;48.358;2.122;2022-11-15T03:21:53;100018.47;;;9.21;80.96
75455;BME280;64035;48.358;2.122;2022-11-15T03:23:05;100019.13;;;9.17;80.59
75455;BME280;64035;48.358;2.122;2022-11-15T03:24:07;100023.72;;;9.24;80.65
75455;BME280;64035;48.358;2.122;2022-11-15T03:25:10;100016.03;;;9.24;80.61
75455;BME280;64035;48.358;2.122;2022-11-15T03:26:16;100009.97;;;9.22;80.53
75455;BME280;64035;48.358;2.122;2022-11-15T03:27:22;100015.16;;;9.24;80.30
75455;BME280;64035;48.358;2.122;2022-11-15T03:28:47;100007.31;;;9.19;80.80
75455;BME280;64035;48.358;2.122;2022-11-15T03:29:52;100002.03;;;9.16;80.36
75455;BME280;64035;48.358;2.122;2022-11-15T03:30:54;100007.22;;;9.18;80.96
75455;BME280;64035;48.358;2.122;2022-11-15T03:32:03;100012.50;;;9.21;80.68
75455;BME280;64035;48.358;2.122;2022-11-15T03:33:06;100014.25;;;9.22;80.66
75455;BME280;64035;48.358;2.122;2022-11-15T03:34:11;100002.28;;;9.21;80.71
75455;BME280;64035;48.358;2.122;2022-11-15T03:35:18;100009.94;;;9.21;80.60
75455;BME280;64035;48.358;2.122;2022-11-15T03:36:22;100002.84;;;9.15;80.63
75455;BME280;64035;48.358;2.122;2022-11-15T03:37:27;100011.69;;;9.22;80.67
75455;BME280;64035;48.358;2.122;2022-11-15T03:38:32;100009.78;;;9.18;80.84
75455;BME280;64035;48.358;2.122;2022-11-15T03:39:34;100010.47;;;9.14;80.44
75455;BME280;64035;48.358;2.122;2022-11-15T03:40:42;100009.84;;;9.19;80.40
75455;BME280;64035;48.358;2.122;2022-11-15T03:41:50;100020.06;;;9.19;80.26
75455;BME280;64035;48.358;2.122;2022-11-15T03:44:36;100008.81;;;9.16;80.65
75455;BME280;64035;48.358;2.122;2022-11-15T03:45:47;100000.09;;;9.11;80.33
75455;BME280;64035;48.358;2.122;2022-11-15T03:47:07;100012.34;;;9.18;80.20
75455;BME280;64035;48.358;2.122;2022-11-15T03:48:22;100008.91;;;9.17;80.31
75455;BME280;64035;48.358;2.122;2022-11-15T03:49:29;100004.41;;;9.12;80.73
75455;BME280;64035;48.358;2.122;2022-11-15T03:50:34;99995.78;;;9.10;80.22
75455;BME280;64035;48.358;2.122;2022-11-15T03:51:35;99990.59;;;9.08;80.42
75455;BME280;64035;48.358;2.122;2022-11-15T03:52:35;99992.31;;;9.08;80.45
75455;BME280;64035;48.358;2.122;2022-11-15T03:53:37;99990.47;;;9.05;80.66
75455;BME280;64035;48.358;2.122;2022-11-15T03:54:48;99994.91;;;9.09;80.33
75455;BME280;64035;48.358;2.122;2022-11-15T03:55:49;99999.22;;;9.10;80.47
75455;BME280;64035;48.358;2.122;2022-11-15T03:56:50;99993.81;;;9.04;80.04
75455;BME280;64035;48.358;2.122;2022-11-15T03:57:53;99992.88;;;9.02;80.36
75455;BME280;64035;48.358;2.122;2022-11-15T03:58:55;99997.25;;;9.05;80.13
75455;BME280;64035;48.358;2.122;2022-11-15T03:59:55;99990.41;;;9.04;80.17
75455;BME280;64035;48.358;2.122;2022-11-15T04:01:04;99983.47;;;9.01;80.13
75455;BME280;64035;48.358;2.122;2022-11-15T04:02:04;99992.94;;;9.04;80.16
75455;BME280;64035;48.358;2.122;2022-11-15T04:03:05;99984.06;;;8.95;79.99
75455;BME280;64035;48.358;2.122;2022-11-15T04:04:08;99985.81;;;8.96;80.13
75455;BME280;64035;48.358;2.122;2022-11-15T04:05:09;99982.28;;;8.94;79.81
75455;BME280;64035;48.358;2.122;2022-11-15T04:06:10;99985.72;;;8.95;80.22
75455;BME280;64035;48.358;2.122;2022-11-15T04:07:10;99982.28;;;8.94;79.81
75455;BME280;64035;48.358;2.122;2022-11-15T04:08:11;99988.19;;;8.93;79.99
75455;BME280;64035;48.358;2.122;2022-11-15T04:09:11;99990.72;;;8.92;79.96
75455;BME280;64035;48.358;2.122;2022-11-15T04:10:12;99979.53;;;8.90;80.25
75455;BME280;64035;48.358;2.122;2022-11-15T04:11:13;99976.13;;;8.89;79.84
75455;BME280;64035;48.358;2.122;2022-11-15T04:12:13;99983.09;;;8.93;80.22
75455;BME280;64035;48.358;2.122;2022-11-15T04:13:30;99980.34;;;8.89;80.02
75455;BME280;64035;48.358;2.122;2022-11-15T04:14:31;99978.00;;;8.93;80.08
75455;BME280;64035;48.358;2.122;2022-11-15T04:15:31;99985.53;;;8.90;80.00
75455;BME280;64035;48.358;2.122;2022-11-15T04:16:32;99973.34;;;8.85;80.14
75455;BME280;64035;48.358;2.122;2022-11-15T04:17:39;99979.53;;;8.90;80.17
75455;BME280;64035;48.358;2.122;2022-11-15T04:18:40;99976.91;;;8.88;80.12
75455;BME280;64035;48.358;2.122;2022-11-15T04:19:41;99970.72;;;8.83;79.96
75455;BME280;64035;48.358;2.122;2022-11-15T04:21:00;99969.94;;;8.84;79.86
75455;BME280;64035;48.358;2.122;2022-11-15T04:22:18;99971.81;;;8.88;79.92
75455;BME280;64035;48.358;2.122;2022-11-15T04:23:37;99959.72;;;8.84;79.92
75455;BME280;64035;48.358;2.122;2022-11-15T04:24:53;99964.91;;;8.86;80.07
75455;BME280;64035;48.358;2.122;2022-11-15T04:25:55;99954.63;;;8.84;79.63
75455;BME280;64035;48.358;2.122;2022-11-15T04:26:56;99958.97;;;8.87;79.67
75455;BME280;64035;48.358;2.122;2022-11-15T04:27:56;99955.41;;;8.83;80.09
75455;BME280;64035;48.358;2.122;2022-11-15T04:28:57;99954.53;;;8.83;79.93
75455;BME280;64035;48.358;2.122;2022-11-15T04:30:16;99953.50;;;8.79;80.15
75455;BME280;64035;48.358;2.122;2022-11-15T04:31:16;99945.00;;;8.79;80.01
75455;BME280;64035;48.358;2.122;2022-11-15T04:32:17;99951.97;;;8.83;79.89
75455;BME280;64035;48.358;2.122;2022-11-15T04:33:17;99951.97;;;8.83;80.33
75455;BME280;64035;48.358;2.122;2022-11-15T04:34:18;99957.00;;;8.81;79.93
75455;BME280;64035;48.358;2.122;2022-11-15T04:35:18;99952.66;;;8.79;80.03
75455;BME280;64035;48.358;2.122;2022-11-15T04:36:19;99947.56;;;8.79;80.03
75455;BME280;64035;48.358;2.122;2022-11-15T04:37:38;99944.13;;;8.78;80.48
75455;BME280;64035;48.358;2.122;2022-11-15T04:38:41;99959.47;;;8.80;80.48
75455;BME280;64035;48.358;2.122;2022-11-15T04:39:42;99955.41;;;8.83;80.17
75455;BME280;64035;48.358;2.122;2022-11-15T04:40:43;99949.22;;;8.78;80.08
75455;BME280;64035;48.358;2.122;2022-11-15T04:41:43;99940.47;;;8.73;80.19
75455;BME280;64035;48.358;2.122;2022-11-15T04:42:44;99939.75;;;8.76;80.31
75455;BME280;64035;48.358;2.122;2022-11-15T04:43:44;99934.72;;;8.77;80.13
75455;BME280;64035;48.358;2.122;2022-11-15T04:44:48;99931.38;;;8.78;80.02
75455;BME280;64035;48.358;2.122;2022-11-15T04:45:48;99930.53;;;8.79;79.75
75455;BME280;64035;48.358;2.122;2022-11-15T04:46:49;99930.63;;;8.81;79.84
75455;BME280;64035;48.358;2.122;2022-11-15T04:47:52;99938.16;;;8.78;79.70
75455;BME280;64035;48.358;2.122;2022-11-15T04:48:54;99926.03;;;8.74;80.17
75455;BME280;64035;48.358;2.122;2022-11-15T04:49:54;99936.41;;;8.77;79.96
75455;BME280;64035;48.358;2.122;2022-11-15T04:50:55;99931.22;;;8.75;80.15
75455;BME280;64035;48.358;2.122;2022-11-15T04:51:55;99927.84;;;8.76;80.09
75455;BME280;64035;48.358;2.122;2022-11-15T04:52:56;99918.28;;;8.72;79.83
75455;BME280;64035;48.358;2.122;2022-11-15T04:53:59;99929.47;;;8.74;79.88
75455;BME280;64035;48.358;2.122;2022-11-15T04:55:03;99931.13;;;8.74;80.27
75455;BME280;64035;48.358;2.122;2022-11-15T04:56:04;99933.75;;;8.75;79.87
75455;BME280;64035;48.358;2.122;2022-11-15T04:57:04;99926.03;;;8.74;79.87
75455;BME280;64035;48.358;2.122;2022-11-15T04:58:05;99925.31;;;8.76;79.87
75455;BME280;64035;48.358;2.122;2022-11-15T04:59:05;99934.72;;;8.77;80.13
75455;BME280;64035;48.358;2.122;2022-11-15T05:00:11;99915.81;;;8.74;80.08
75455;BME280;64035;48.358;2.122;2022-11-15T05:01:18;99925.22;;;8.75;79.92
75455;BME280;64035;48.358;2.122;2022-11-15T05:02:18;99917.50;;;8.73;80.03
75455;BME280;64035;48.358;2.122;2022-11-15T05:03:19;99921.88;;;8.76;79.95
75455;BME280;64035;48.358;2.122;2022-11-15T05:04:38;99918.72;;;8.81;80.08
75455;BME280;64035;48.358;2.122;2022-11-15T05:05:38;99921.16;;;8.78;79.76
75455;BME280;64035;48.358;2.122;2022-11-15T05:06:38;99922.97;;;8.81;80.07
75455;BME280;64035;48.358;2.122;2022-11-15T05:07:39;99920.41;;;8.81;79.98
75455;BME280;64035;48.358;2.122;2022-11-15T05:08:39;99917.84;;;8.81;79.99
75455;BME280;64035;48.358;2.122;2022-11-15T05:09:40;99906.66;;;8.77;79.94
75455;BME280;64035;48.358;2.122;2022-11-15T05:10:40;99905.78;;;8.77;80.13
75455;BME280;64035;48.358;2.122;2022-11-15T05:11:41;99911.75;;;8.77;80.00
75455;BME280;64035;48.358;2.122;2022-11-15T05:12:43;99911.16;;;8.83;80.19
75455;BME280;64035;48.358;2.122;2022-11-15T05:13:44;99898.19;;;8.78;80.05
75455;BME280;64035;48.358;2.122;2022-11-15T05:14:44;99912.09;;;8.85;80.16
75455;BME280;64035;48.358;2.122;2022-11-15T05:15:45;99897.44;;;8.81;80.01
75455;BME280;64035;48.358;2.122;2022-11-15T05:16:45;99900.94;;;8.83;80.05
75455;BME280;64035;48.358;2.122;2022-11-15T05:17:48;99901.81;;;8.83;80.29
75455;BME280;64035;48.358;2.122;2022-11-15T05:18:54;99905.16;;;8.82;80.67
75455;BME280;64035;48.358;2.122;2022-11-15T05:19:55;99905.09;;;8.81;80.32
75455;BME280;64035;48.358;2.122;2022-11-15T05:21:05;99892.13;;;8.76;80.93
75455;BME280;64035;48.358;2.122;2022-11-15T05:22:12;99894.78;;;8.78;80.79
75455;BME280;64035;48.358;2.122;2022-11-15T05:23:14;99891.34;;;8.77;80.91
75455;BME280;64035;48.358;2.122;2022-11-15T05:24:17;99897.38;;;8.79;80.76
75455;BME280;64035;48.358;2.122;2022-11-15T05:25:21;99886.31;;;8.79;80.74
75455;BME280;64035;48.358;2.122;2022-11-15T05:26:22;99893.13;;;8.80;80.94
75455;BME280;64035;48.358;2.122;2022-11-15T05:27:24;99890.59;;;8.80;80.92
75455;BME280;64035;48.358;2.122;2022-11-15T05:28:32;99899.13;;;8.80;80.88
75455;BME280;64035;48.358;2.122;2022-11-15T05:29:33;99895.03;;;8.84;80.93
75455;BME280;64035;48.358;2.122;2022-11-15T05:30:33;99898.47;;;8.84;80.56
75455;BME280;64035;48.358;2.122;2022-11-15T05:31:39;99899.28;;;8.83;81.07
75455;BME280;64035;48.358;2.122;2022-11-15T05:32:46;99887.16;;;8.79;80.84
75455;BME280;64035;48.358;2.122;2022-11-15T05:33:48;99896.13;;;8.89;80.72
75455;BME280;64035;48.358;2.122;2022-11-15T05:34:51;99893.44;;;8.86;80.68
75455;BME280;64035;48.358;2.122;2022-11-15T05:35:58;99884.09;;;8.86;80.75
75455;BME280;64035;48.358;2.122;2022-11-15T05:37:00;99890.13;;;8.88;80.80
75455;BME280;64035;48.358;2.122;2022-11-15T05:38:06;99878.84;;;8.83;80.68
75455;BME280;64035;48.358;2.122;2022-11-15T05:39:07;99875.59;;;8.86;81.03
75455;BME280;64035;48.358;2.122;2022-11-15T05:40:08;99883.44;;;8.90;80.88
75455;BME280;64035;48.358;2.122;2022-11-15T05:41:11;99879.06;;;8.88;81.13
75455;BME280;64035;48.358;2.122;2022-11-15T05:42:15;99880.81;;;8.89;80.71
75455;BME280;64035;48.358;2.122;2022-11-15T05:43:22;99882.72;;;8.93;80.84
75455;BME280;64035;48.358;2.122;2022-11-15T05:44:32;99879.22;;;8.91;81.26
75455;BME280;64035;48.358;2.122;2022-11-15T05:45:34;99883.44;;;8.90;80.71
75455;BME280;64035;48.358;2.122;2022-11-15T05:46:36;99880.81;;;8.89;80.59
75455;BME280;64035;48.358;2.122;2022-11-15T05:47:41;99879.84;;;8.87;81.15
75455;BME280;64035;48.358;2.122;2022-11-15T05:48:45;99882.47;;;8.88;81.11
75455;BME280;64035;48.358;2.122;2022-11-15T05:49:48;99883.97;;;8.83;81.24
75455;BME280;64035;48.358;2.122;2022-11-15T05:50:52;99886.72;;;8.88;81.35
75455;BME280;64035;48.358;2.122;2022-11-15T05:51:53;99885.78;;;8.86;81.33
75455;BME280;64035;48.358;2.122;2022-11-15T05:52:57;99886.63;;;8.86;81.32
75455;BME280;64035;48.358;2.122;2022-11-15T05:54:00;99899.69;;;8.92;81.34
75455;BME280;64035;48.358;2.122;2022-11-15T05:55:07;99884.97;;;8.87;81.56
75455;BME280;64035;48.358;2.122;2022-11-15T05:56:12;99891.00;;;8.89;81.48
75455;BME280;64035;48.358;2.122;2022-11-15T05:57:12;99883.25;;;8.86;81.14
75455;BME280;64035;48.358;2.122;2022-11-15T05:58:13;99898.03;;;8.93;81.57
75455;BME280;64035;48.358;2.122;2022-11-15T05:59:13;99889.50;;;8.92;81.46
75455;BME280;64035;48.358;2.122;2022-11-15T06:00:17;99879.13;;;8.89;81.42
75455;BME280;64035;48.358;2.122;2022-11-15T06:01:17;99881.09;;;8.95;81.41
75455;BME280;64035;48.358;2.122;2022-11-15T06:02:20;99874.03;;;8.89;81.54
75455;BME280;64035;48.358;2.122;2022-11-15T06:03:21;99875.09;;;8.94;81.27
75455;BME280;64035;48.358;2.122;2022-11-15T06:04:23;99874.31;;;8.95;81.38
75455;BME280;64035;48.358;2.122;2022-11-15T06:05:24;99874.38;;;8.97;81.63
75455;BME280;64035;48.358;2.122;2022-11-15T06:06:24;99876.19;;;8.99;81.74
75455;BME280;64035;48.358;2.122;2022-11-15T06:07:29;99875.25;;;8.97;81.79
75455;BME280;64035;48.358;2.122;2022-11-15T06:08:29;99871.03;;;8.98;81.92
75455;BME280;64035;48.358;2.122;2022-11-15T06:09:30;99858.97;;;8.95;81.98
75455;BME280;64035;48.358;2.122;2022-11-15T06:10:30;99861.75;;;9.00;81.85
75455;BME280;64035;48.358;2.122;2022-11-15T06:11:31;99862.56;;;8.99;81.99
75455;BME280;64035;48.358;2.122;2022-11-15T06:12:31;99856.59;;;8.98;82.05
75455;BME280;64035;48.358;2.122;2022-11-15T06:13:32;99854.91;;;8.99;81.93
75455;BME280;64035;48.358;2.122;2022-11-15T06:14:40;99853.28;;;9.01;82.09
75455;BME280;64035;48.358;2.122;2022-11-15T06:15:40;99849.03;;;9.01;82.10
75455;BME280;64035;48.358;2.122;2022-11-15T06:16:43;99851.66;;;9.03;81.94